Time;durP1;ratioP1;P1;durP2;ratioP2;P2;SDS_P1;SDS_P2;PMS_P1;PMS_P2;Temp;Humidity;BMP_temperature;BMP_pressure;BME280_temperature;BME280_humidity;BME280_pressure;Samples;Min_cycle;Max_cycle;Signal;HPM_P1;HPM_P2
2022/10/30 00:01:27;;;;;;;11.17;4.17;;;;;;;17.19;68.68;100970.22;5081501;28;20206;-83
2022/10/30 00:03:53;;;;;;;8.67;4.03;;;;;;;17.18;68.86;100977.44;5082446;28;20216;-83
2022/10/30 00:06:20;;;;;;;6.93;4.20;;;;;;;17.15;68.98;100975.00;5080243;28;20223;-83
2022/10/30 00:08:46;;;;;;;9.03;4.23;;;;;;;17.13;69.12;100979.66;5081408;28;20232;-84
2022/10/30 00:11:22;;;;;;;7.70;3.87;;;;;;;17.12;69.01;100983.34;5078217;28;20216;-83
2022/10/30 00:13:49;;;;;;;10.60;3.83;;;;;;;17.11;68.90;100986.16;5082638;28;20201;-83
2022/10/30 00:16:16;;;;;;;9.27;3.67;;;;;;;17.12;68.73;100982.47;5080321;28;20221;-83
2022/10/30 00:18:43;;;;;;;7.80;4.00;;;;;;;17.13;68.53;100971.59;5085234;28;20224;-83
2022/10/30 00:21:11;;;;;;;12.67;4.27;;;;;;;17.17;68.13;100982.97;5085721;28;20578;-83
2022/10/30 00:23:38;;;;;;;8.00;3.80;;;;;;;17.25;67.68;100964.28;5077290;28;20208;-82
2022/10/30 00:26:05;;;;;;;9.20;4.03;;;;;;;17.31;67.13;100967.31;5084471;28;20657;-83
2022/10/30 00:28:34;;;;;;;8.97;3.70;;;;;;;17.39;66.77;100958.56;5079665;28;20224;-83
2022/10/30 00:31:01;;;;;;;7.20;3.93;;;;;;;17.45;66.16;100962.56;5079970;28;20206;-83
2022/10/30 00:33:27;;;;;;;9.53;3.47;;;;;;;17.50;66.00;100958.50;5085760;28;20196;-83
2022/10/30 00:35:54;;;;;;;7.67;3.70;;;;;;;17.54;65.86;100954.56;5087854;28;20231;-83
2022/10/30 00:38:20;;;;;;;5.03;3.70;;;;;;;17.59;65.58;100949.59;5086488;28;20195;-83
2022/10/30 00:40:47;;;;;;;8.47;3.63;;;;;;;17.62;65.43;100953.88;5084424;28;20201;-83
2022/10/30 00:43:32;;;;;;;10.20;3.63;;;;;;;17.63;65.35;100952.88;5088782;28;20209;-83
2022/10/30 00:46:04;;;;;;;8.73;4.00;;;;;;;17.62;65.29;100954.72;5079410;28;20594;-83
2022/10/30 00:48:30;;;;;;;10.73;4.60;;;;;;;17.60;65.49;100962.06;5082837;28;20558;-83
2022/10/30 00:50:59;;;;;;;11.33;4.50;;;;;;;17.61;65.51;100960.22;5084863;28;20198;-83
2022/10/30 00:53:27;;;;;;;5.77;3.60;;;;;;;17.59;65.82;100960.38;5081517;28;20210;-83
2022/10/30 00:55:59;;;;;;;8.83;4.37;;;;;;;17.59;65.96;100962.22;5078213;28;20847;-83
2022/10/30 00:58:29;;;;;;;9.87;4.23;;;;;;;17.57;66.20;100959.66;5087856;28;20212;-83
2022/10/30 01:00:57;;;;;;;6.83;4.00;;;;;;;17.53;66.37;100952.84;5088286;28;20218;-83
2022/10/30 01:03:28;;;;;;;10.90;4.17;;;;;;;17.51;66.42;100959.34;5084928;28;20217;-83
2022/10/30 01:05:58;;;;;;;9.83;3.70;;;;;;;17.47;66.30;100953.38;5083887;28;20232;-83
2022/10/30 01:08:25;;;;;;;12.20;3.77;;;;;;;17.45;66.38;100955.34;5082109;28;20218;-83
2022/10/30 01:10:52;;;;;;;11.83;4.37;;;;;;;17.43;66.27;100957.31;5083023;28;20207;-82
2022/10/30 01:13:22;;;;;;;13.63;4.33;;;;;;;17.43;66.27;100959.16;5083394;28;20210;-83
2022/10/30 01:15:59;;;;;;;6.47;3.50;;;;;;;17.43;66.17;100957.31;5086798;28;20228;-83
2022/10/30 01:18:38;;;;;;;9.20;3.80;;;;;;;17.43;65.84;100962.69;5087865;28;20218;-84
2022/10/30 01:21:19;;;;;;;7.90;3.83;;;;;;;17.45;66.05;100959.88;5088823;28;20703;-83
2022/10/30 01:23:56;;;;;;;11.87;4.00;;;;;;;17.43;66.07;100957.31;5087738;28;20219;-83
2022/10/30 01:26:36;;;;;;;8.47;3.97;;;;;;;17.43;66.24;100951.06;5093201;28;20253;-83
2022/10/30 01:29:19;;;;;;;9.47;3.70;;;;;;;17.43;66.24;100956.47;5088934;28;20222;-83
2022/10/30 01:31:58;;;;;;;16.70;4.17;;;;;;;17.39;66.21;100955.88;5087954;28;20194;-84
2022/10/30 01:34:36;;;;;;;8.13;3.70;;;;;;;17.40;66.19;100962.09;5093578;28;20239;-84
2022/10/30 01:37:06;;;;;;;7.73;3.63;;;;;;;17.41;66.04;100956.59;5094081;28;20203;-83
2022/10/30 01:39:35;;;;;;;11.97;3.83;;;;;;;17.43;65.90;100951.06;5085899;28;20200;-83
2022/10/30 01:42:09;;;;;;;8.87;4.07;;;;;;;17.47;65.78;100949.81;5087883;28;20203;-83
2022/10/30 01:44:37;;;;;;;9.00;3.87;;;;;;;17.52;65.56;100945.75;5085652;28;20249;-83
2022/10/30 01:47:21;;;;;;;6.47;3.33;;;;;;;17.54;65.19;100943.78;5091371;28;20205;-83
2022/10/30 01:50:09;;;;;;;7.33;3.63;;;;;;;17.58;65.11;100945.19;5089603;28;20231;-83
2022/10/30 01:52:43;;;;;;;9.93;3.80;;;;;;;17.63;64.67;100953.72;5091531;28;20198;-84
2022/10/30 01:55:22;;;;;;;9.97;3.87;;;;;;;17.68;64.35;100946.13;5088670;28;20609;-83
2022/10/30 01:57:54;;;;;;;7.93;3.63;;;;;;;17.75;63.95;100941.03;5084534;28;20209;-83
2022/10/30 02:00:21;;;;;;;8.57;3.40;;;;;;;17.80;63.64;100946.88;5091991;28;20205;-82
2022/10/30 02:02:49;;;;;;;12.70;4.17;;;;;;;17.86;63.18;100949.03;5091983;28;20196;-83
2022/10/30 02:05:25;;;;;;;8.57;3.53;;;;;;;17.94;62.99;100948.34;5092066;28;20246;-83
2022/10/30 02:07:51;;;;;;;8.73;3.63;;;;;;;17.96;62.68;100949.06;5087666;28;20224;-83
2022/10/30 02:10:18;;;;;;;8.03;4.00;;;;;;;17.98;62.53;100953.31;5087341;28;20210;-83
2022/10/30 02:12:44;;;;;;;8.57;3.77;;;;;;;18.00;62.57;100950.50;5090169;28;20587;-83
2022/10/30 02:15:11;;;;;;;5.30;3.57;;;;;;;17.98;62.76;100953.31;5091645;28;20256;-82
2022/10/30 02:17:39;;;;;;;8.10;3.70;;;;;;;17.97;63.06;100953.47;5092314;28;20194;-83
2022/10/30 02:20:07;;;;;;;11.47;3.90;;;;;;;17.94;63.17;100957.28;5092015;28;20658;-83
2022/10/30 02:22:35;;;;;;;7.83;3.67;;;;;;;17.89;63.49;100959.56;5089760;28;20817;-83
2022/10/30 02:25:01;;;;;;;10.00;4.23;;;;;;;17.84;63.70;100953.72;5088280;28;20222;-83
2022/10/30 02:27:28;;;;;;;9.67;4.00;;;;;;;17.78;64.22;100961.47;5090399;28;20704;-83
2022/10/30 02:29:54;;;;;;;7.17;3.83;;;;;;;17.71;64.51;100961.19;5086215;28;20315;-83
2022/10/30 02:32:20;;;;;;;7.80;4.30;;;;;;;17.67;64.87;100959.75;5089721;28;20209;-83
2022/10/30 02:34:47;;;;;;;10.13;4.20;;;;;;;17.60;65.11;100959.38;5089825;28;20699;-83
2022/10/30 02:37:13;;;;;;;12.63;4.57;;;;;;;17.55;65.45;100967.03;5089467;28;20206;-83
2022/10/30 02:39:41;;;;;;;7.33;4.00;;;;;;;17.51;65.57;100973.66;5090126;28;20202;-83
2022/10/30 02:42:07;;;;;;;8.70;4.23;;;;;;;17.46;65.84;100967.81;5092695;28;20211;-84
2022/10/30 02:44:34;;;;;;;11.00;4.20;;;;;;;17.42;66.08;100969.06;5092965;28;20683;-84
2022/10/30 02:47:00;;;;;;;11.17;4.07;;;;;;;17.37;66.46;100970.47;5090213;28;20204;-83
2022/10/30 02:49:27;;;;;;;8.20;3.73;;;;;;;17.32;66.83;100965.47;5091743;28;20775;-84
2022/10/30 02:51:53;;;;;;;8.10;4.07;;;;;;;17.27;67.03;100960.47;5084877;28;20204;-83
2022/10/30 02:54:20;;;;;;;8.10;4.07;;;;;;;17.22;67.29;100954.63;5086918;28;20210;-83
2022/10/30 02:56:47;;;;;;;15.50;4.83;;;;;;;17.19;67.54;100959.47;5088917;28;20206;-83
2022/10/30 02:59:14;;;;;;;7.50;3.93;;;;;;;17.15;67.72;100958.84;5090381;28;20193;-83
2022/10/30 03:01:40;;;;;;;11.07;4.37;;;;;;;17.11;68.11;100960.09;5084496;28;20200;-83
2022/10/30 03:04:07;;;;;;;11.80;4.37;;;;;;;17.06;68.38;100956.94;5086632;28;20203;-83
2022/10/30 03:06:33;;;;;;;8.40;3.87;;;;;;;17.04;68.65;100955.34;5087564;28;20200;-83
2022/10/30 03:09:00;;;;;;;8.43;4.60;;;;;;;16.98;68.86;100959.44;5089871;28;20709;-83
2022/10/30 03:11:27;;;;;;;10.43;4.27;;;;;;;16.94;69.24;100958.00;5090041;28;20609;-83
2022/10/30 03:13:55;;;;;;;9.53;4.70;;;;;;;16.92;69.32;100965.34;5089586;28;20199;-83
2022/10/30 03:16:23;;;;;;;11.03;4.43;;;;;;;16.88;69.61;100966.59;5088367;28;20234;-83
2022/10/30 03:18:51;;;;;;;8.97;4.17;;;;;;;16.85;69.86;100966.84;5089887;28;20593;-83
2022/10/30 03:21:20;;;;;;;7.93;3.80;;;;;;;16.82;70.23;100964.44;5088488;28;20208;-83
2022/10/30 03:23:47;;;;;;;8.97;4.03;;;;;;;16.78;70.23;100966.53;5089595;28;20212;-83
2022/10/30 03:26:13;;;;;;;13.03;4.60;;;;;;;16.77;70.44;100975.56;5089241;28;20328;-83
2022/10/30 03:28:40;;;;;;;8.77;4.33;;;;;;;16.73;70.50;100965.19;5089828;28;20710;-82
2022/10/30 03:31:10;;;;;;;7.43;3.97;;;;;;;16.70;70.73;100966.28;5088425;28;20209;-83
2022/10/30 03:33:38;;;;;;;6.87;4.57;;;;;;;16.67;70.86;100963.84;5077746;28;20208;-83
2022/10/30 03:36:05;;;;;;;9.43;5.13;;;;;;;16.64;71.10;100973.06;5086410;28;20729;-83
2022/10/30 03:38:31;;;;;;;11.10;4.13;;;;;;;16.63;71.40;100970.50;5089416;28;20199;-83
2022/10/30 03:40:58;;;;;;;9.87;4.57;;;;;;;16.59;71.77;100966.31;5091226;28;20206;-83
2022/10/30 03:43:25;;;;;;;7.23;4.00;;;;;;;16.57;71.84;100960.22;5089147;28;20237;-83
2022/10/30 03:45:53;;;;;;;10.03;4.83;;;;;;;16.54;72.32;100968.53;5086734;28;20226;-85
2022/10/30 03:48:23;;;;;;;12.27;5.27;;;;;;;16.52;72.42;100971.34;5089942;28;20945;-82
2022/10/30 03:50:51;;;;;;;12.23;4.87;;;;;;;16.49;72.75;100968.91;5090308;28;20206;-82
2022/10/30 03:53:18;;;;;;;7.47;4.47;;;;;;;16.46;72.96;100969.19;5089812;28;20210;-83
2022/10/30 03:55:44;;;;;;;10.17;4.90;;;;;;;16.44;72.96;100962.22;5091337;28;20224;-82
2022/10/30 03:58:11;;;;;;;10.30;4.93;;;;;;;16.39;73.44;100965.28;5088389;28;20226;-83
2022/10/30 04:00:37;;;;;;;8.77;4.60;;;;;;;16.35;73.61;100957.59;5085907;28;20224;-83
2022/10/30 04:03:07;;;;;;;6.60;4.83;;;;;;;16.31;73.91;100963.22;5082594;28;20228;-83
2022/10/30 04:05:36;;;;;;;7.80;4.73;;;;;;;16.28;74.00;100973.38;5084614;28;20230;-83
2022/10/30 04:08:06;;;;;;;6.93;4.67;;;;;;;16.24;74.55;100972.78;5085508;28;20216;-84
2022/10/30 04:10:33;;;;;;;10.67;5.03;;;;;;;16.21;74.53;100970.34;5086440;28;20222;-83
2022/10/30 04:13:00;;;;;;;7.47;4.63;;;;;;;16.20;74.67;100975.84;5088765;28;20647;-83
2022/10/30 04:15:27;;;;;;;10.47;5.47;;;;;;;16.17;74.78;100973.38;5088514;28;20234;-83
2022/10/30 04:17:54;;;;;;;8.70;5.07;;;;;;;16.14;74.95;100971.81;5086170;28;20626;-83
2022/10/30 04:20:22;;;;;;;7.37;4.70;;;;;;;16.11;75.04;100973.91;5089133;28;20190;-83
2022/10/30 04:22:55;;;;;;;6.23;4.60;;;;;;;16.08;74.96;100976.84;5089476;28;20198;-83
2022/10/30 04:25:22;;;;;;;8.80;4.80;;;;;;;16.05;75.09;100974.41;5085107;28;20221;-83
2022/10/30 04:27:49;;;;;;;10.80;4.90;;;;;;;16.04;75.06;100972.69;5085996;28;20205;-83
2022/10/30 04:30:15;;;;;;;11.00;4.70;;;;;;;16.00;75.36;100960.47;5087722;28;20253;-83
2022/10/30 04:32:46;;;;;;;10.23;5.27;;;;;;;15.94;75.30;100965.34;5091413;28;20687;-83
2022/10/30 04:35:14;;;;;;;7.33;3.93;;;;;;;15.91;75.00;100960.25;5086314;28;20226;-83
2022/10/30 04:37:40;;;;;;;8.23;4.50;;;;;;;15.88;75.33;100968.56;5095111;28;20200;-83
2022/10/30 04:40:09;;;;;;;7.93;4.73;;;;;;;15.84;75.61;100964.41;5092720;28;20670;-83
2022/10/30 04:42:36;;;;;;;9.67;4.63;;;;;;;15.81;75.61;100959.28;5080707;28;20206;-82
2022/10/30 04:45:02;;;;;;;8.03;4.33;;;;;;;15.76;75.26;100966.88;5090717;28;20228;-81
2022/10/30 04:47:31;;;;;;;10.37;4.90;;;;;;;15.72;75.58;100959.16;5087525;28;20208;-81
2022/10/30 04:49:57;;;;;;;10.73;3.83;;;;;;;15.67;75.70;100964.91;5091860;28;20460;-82
2022/10/30 04:52:24;;;;;;;10.37;4.87;;;;;;;15.64;75.53;100962.44;5090868;28;20675;-83
2022/10/30 04:54:52;;;;;;;9.03;4.43;;;;;;;15.59;75.67;100956.59;5090438;28;20224;-83
2022/10/30 04:57:20;;;;;;;13.27;4.90;;;;;;;15.56;75.59;100962.22;5088644;28;20224;-84
2022/10/30 04:59:47;;;;;;;11.47;4.43;;;;;;;15.50;76.08;100965.34;5090936;28;20684;-82
2022/10/30 05:02:13;;;;;;;9.47;4.47;;;;;;;15.45;76.11;100962.16;5088988;28;20779;-83
2022/10/30 05:04:40;;;;;;;8.63;4.77;;;;;;;15.40;76.29;100959.88;5085602;28;20224;-82
2022/10/30 05:07:08;;;;;;;12.53;4.77;;;;;;;15.37;76.07;100951.19;5088273;28;20289;-82
2022/10/30 05:09:35;;;;;;;9.13;4.67;;;;;;;15.30;76.26;100956.19;5085441;28;20227;-81
2022/10/30 05:12:02;;;;;;;7.73;4.60;;;;;;;15.24;76.55;100952.13;5087050;28;20206;-82
2022/10/30 05:14:31;;;;;;;7.83;4.40;;;;;;;15.19;76.74;100957.03;5091897;28;20694;-82
2022/10/30 05:17:01;;;;;;;9.23;4.70;;;;;;;15.15;76.68;100943.97;5088179;28;20196;-82
2022/10/30 05:19:27;;;;;;;9.50;4.43;;;;;;;15.08;76.70;100943.56;5089192;28;20218;-82
2022/10/30 05:21:54;;;;;;;5.83;4.40;;;;;;;15.02;76.80;100936.03;5092902;28;20206;-82
2022/10/30 05:24:20;;;;;;;9.00;4.77;;;;;;;14.95;76.43;100950.84;5093623;28;20209;-82
2022/10/30 05:26:47;;;;;;;8.80;4.00;;;;;;;14.88;76.85;100946.94;5089568;28;20208;-82
2022/10/30 05:29:15;;;;;;;11.30;4.50;;;;;;;14.82;77.28;100937.53;5085733;28;20227;-82
2022/10/30 05:31:43;;;;;;;7.90;4.57;;;;;;;14.79;77.19;100937.78;5090778;28;20228;-82
2022/10/30 05:34:10;;;;;;;8.00;4.73;;;;;;;14.75;77.53;100951.53;5088969;28;20209;-84
2022/10/30 05:36:36;;;;;;;10.73;5.17;;;;;;;14.72;77.67;100947.25;5095495;28;20201;-82
2022/10/30 05:39:03;;;;;;;13.47;4.83;;;;;;;14.70;78.23;100945.66;5096048;28;20236;-83
2022/10/30 05:41:29;;;;;;;8.53;4.57;;;;;;;14.66;78.49;100947.72;5094161;28;20211;-82
2022/10/30 05:43:56;;;;;;;8.23;4.40;;;;;;;14.65;78.43;100961.25;5087787;28;20208;-83
2022/10/30 05:46:22;;;;;;;7.23;4.60;;;;;;;14.63;78.52;100966.72;5095406;28;20223;-82
2022/10/30 05:48:50;;;;;;;6.97;4.60;;;;;;;14.60;78.64;100953.53;5088098;28;20792;-84
2022/10/30 05:51:17;;;;;;;8.00;4.67;;;;;;;14.57;78.68;100957.31;5090387;28;20220;-84
2022/10/30 05:53:43;;;;;;;9.67;4.80;;;;;;;14.54;79.27;100965.56;5089908;28;20208;-82
2022/10/30 05:56:09;;;;;;;13.30;4.70;;;;;;;14.52;79.33;100972.88;5090095;28;20325;-83
2022/10/30 05:58:36;;;;;;;10.10;5.27;;;;;;;14.52;78.91;100972.00;5086491;28;20196;-84
2022/10/30 06:01:05;;;;;;;8.77;4.87;;;;;;;14.48;79.25;100976.78;5088674;28;20647;-83
2022/10/30 06:03:32;;;;;;;10.20;4.30;;;;;;;14.47;79.51;100975.06;5091728;28;20206;-82
2022/10/30 06:06:00;;;;;;;11.20;5.83;;;;;;;14.45;79.31;100979.66;5086501;28;20228;-83
2022/10/30 06:08:26;;;;;;;10.33;4.87;;;;;;;14.42;79.26;100977.22;5088445;28;20215;-82
2022/10/30 06:10:53;;;;;;;10.13;5.13;;;;;;;14.39;79.71;100982.75;5088914;28;20220;-82
2022/10/30 06:13:20;;;;;;;8.17;5.10;;;;;;;14.36;79.69;100993.69;5085975;28;20201;-82
2022/10/30 06:15:46;;;;;;;9.77;5.03;;;;;;;14.33;79.88;100983.19;5087602;28;20597;-82
2022/10/30 06:18:13;;;;;;;10.67;5.30;;;;;;;14.31;79.83;100981.63;5090339;28;20727;-83
2022/10/30 06:20:39;;;;;;;7.63;4.73;;;;;;;14.29;79.75;100984.41;5091202;28;20204;-83
2022/10/30 06:23:08;;;;;;;8.73;5.00;;;;;;;14.27;80.27;100994.38;5091702;28;20216;-82
2022/10/30 06:25:36;;;;;;;12.93;4.97;;;;;;;14.25;79.96;100996.31;5089584;28;20691;-82
2022/10/30 06:28:02;;;;;;;9.50;5.50;;;;;;;14.21;80.16;101000.19;5089928;28;20196;-82
2022/10/30 06:30:29;;;;;;;8.20;5.17;;;;;;;14.18;80.61;101001.25;5089889;28;20228;-83
2022/10/30 06:32:57;;;;;;;9.03;4.90;;;;;;;14.16;80.79;101008.56;5087802;28;20662;-83
2022/10/30 06:35:23;;;;;;;7.50;4.57;;;;;;;14.15;80.56;101006.84;5083985;28;20221;-83
2022/10/30 06:37:52;;;;;;;8.27;4.70;;;;;;;14.10;80.26;101006.34;5088318;28;20211;-84
2022/10/30 06:40:20;;;;;;;9.50;4.17;;;;;;;14.01;80.38;101006.97;5093988;28;20204;-83
2022/10/30 06:42:49;;;;;;;13.63;5.47;;;;;;;13.97;80.44;101002.84;5086860;28;20215;-83
2022/10/30 06:45:17;;;;;;;9.53;5.10;;;;;;;13.93;80.49;101005.84;5087684;28;20349;-84
2022/10/30 06:47:43;;;;;;;9.27;5.03;;;;;;;13.88;80.96;101017.72;5087703;28;20204;-83
2022/10/30 06:50:12;;;;;;;12.03;5.00;;;;;;;13.83;81.10;101022.53;5089529;28;20565;-82
2022/10/30 06:52:39;;;;;;;9.70;5.23;;;;;;;13.82;81.53;101026.19;5086527;28;20200;-83
2022/10/30 06:55:06;;;;;;;9.07;4.90;;;;;;;13.80;81.71;101021.91;5082376;28;20223;-83
2022/10/30 06:57:34;;;;;;;10.20;5.23;;;;;;;13.81;82.13;101035.19;5084619;28;20219;-82
2022/10/30 07:00:01;;;;;;;8.77;4.97;;;;;;;13.79;82.15;101031.75;5084065;28;20196;-83
2022/10/30 07:02:29;;;;;;;11.70;5.23;;;;;;;13.77;82.42;101031.03;5085091;28;20207;-82
2022/10/30 07:04:55;;;;;;;10.60;4.90;;;;;;;13.74;82.16;101036.59;5084291;28;20224;-82
2022/10/30 07:07:22;;;;;;;8.20;4.93;;;;;;;13.73;82.45;101031.34;5086261;28;20540;-82
2022/10/30 07:09:48;;;;;;;11.77;5.10;;;;;;;13.72;82.97;101040.34;5093256;28;20223;-82
2022/10/30 07:12:15;;;;;;;8.47;4.87;;;;;;;13.72;83.06;101046.56;5091794;28;20680;-83
2022/10/30 07:14:42;;;;;;;12.17;4.70;;;;;;;13.73;83.50;101036.69;5091884;28;20235;-82
2022/10/30 07:17:09;;;;;;;21.63;5.83;;;;;;;13.72;83.34;101035.84;5091804;28;20200;-82
2022/10/30 07:19:36;;;;;;;9.73;5.80;;;;;;;13.74;83.77;101038.41;5088596;28;20556;-82
2022/10/30 07:22:02;;;;;;;10.13;5.27;;;;;;;13.73;84.04;101034.88;5086940;28;20196;-82
2022/10/30 07:24:29;;;;;;;8.47;5.23;;;;;;;13.77;84.48;101041.75;5089981;28;20212;-82
2022/10/30 07:26:56;;;;;;;9.47;5.00;;;;;;;13.78;84.27;101043.44;5085144;28;20197;-84
2022/10/30 07:29:22;;;;;;;10.77;5.73;;;;;;;13.79;84.72;101047.81;5080563;28;20204;-84
2022/10/30 07:31:50;;;;;;;8.00;5.33;;;;;;;13.82;85.21;101052.97;5088014;28;20211;-84
2022/10/30 07:34:17;;;;;;;11.87;5.57;;;;;;;13.85;85.45;101052.75;5090758;28;20603;-83
2022/10/30 07:36:43;;;;;;;11.20;5.07;;;;;;;13.88;85.34;101052.53;5092891;28;20664;-83
2022/10/30 07:39:09;;;;;;;18.73;5.80;;;;;;;13.93;85.63;101064.75;5094567;28;20668;-82
2022/10/30 07:41:36;;;;;;;7.07;5.30;;;;;;;13.97;85.91;101058.22;5093819;28;20200;-82
2022/10/30 07:44:03;;;;;;;8.23;5.17;;;;;;;14.01;86.59;101057.88;5093556;28;20208;-84
2022/10/30 07:46:29;;;;;;;8.97;5.13;;;;;;;14.09;87.13;101065.38;5093818;28;20232;-81
2022/10/30 07:48:57;;;;;;;12.40;5.57;;;;;;;14.14;87.23;101063.22;5094632;28;20218;-82
2022/10/30 07:51:24;;;;;;;8.73;4.93;;;;;;;14.20;87.33;101065.44;5092336;28;20579;-82
2022/10/30 07:53:50;;;;;;;12.57;5.20;;;;;;;14.27;88.15;101068.56;5087650;28;20807;-82
2022/10/30 07:56:17;;;;;;;8.13;5.00;;;;;;;14.37;88.32;101069.59;5083343;28;20310;-83
2022/10/30 07:58:43;;;;;;;13.23;5.37;;;;;;;14.46;88.09;101061.78;5080054;28;20204;-81
2022/10/30 08:01:10;;;;;;;11.03;5.17;;;;;;;14.57;88.10;101067.19;5084619;28;20214;-81
2022/10/30 08:03:36;;;;;;;10.00;5.43;;;;;;;14.68;87.80;101063.75;5091579;28;20200;-82
2022/10/30 08:06:04;;;;;;;10.87;5.17;;;;;;;14.80;87.57;101056.59;5089830;28;20575;-82
2022/10/30 08:08:31;;;;;;;10.70;4.77;;;;;;;14.92;87.48;101061.03;5091427;28;20208;-82
2022/10/30 08:10:57;;;;;;;9.20;4.63;;;;;;;15.04;87.34;101057.47;5092258;28;20229;-83
2022/10/30 08:13:24;;;;;;;14.43;5.03;;;;;;;15.18;86.60;101062.63;5095021;28;20207;-83
2022/10/30 08:15:50;;;;;;;11.90;4.93;;;;;;;15.32;86.51;101063.41;5094840;28;20232;-83
2022/10/30 08:18:17;;;;;;;11.03;4.87;;;;;;;15.44;86.67;101070.50;5094334;28;20208;-83
2022/10/30 08:20:47;;;;;;;10.30;5.43;;;;;;;15.57;86.29;101060.59;5094888;28;20208;-83
2022/10/30 08:23:16;;;;;;;11.50;4.47;;;;;;;15.73;85.70;101061.09;5094742;28;20200;-83
2022/10/30 08:25:43;;;;;;;10.73;4.23;;;;;;;15.85;85.02;101057.44;5094048;28;20226;-82
2022/10/30 08:28:10;;;;;;;9.30;4.20;;;;;;;16.00;84.05;101057.19;5093500;28;20211;-83
2022/10/30 08:30:37;;;;;;;9.50;4.60;;;;;;;16.14;83.47;101055.09;5093059;28;20283;-83
2022/10/30 08:33:06;;;;;;;10.13;5.00;;;;;;;16.29;82.72;101050.34;5094030;28;20198;-83
2022/10/30 08:35:33;;;;;;;12.80;4.87;;;;;;;16.46;81.81;101054.34;5094467;28;20222;-83
2022/10/30 08:38:01;;;;;;;9.43;4.23;;;;;;;16.62;80.73;101050.28;5094739;28;20294;-83
2022/10/30 08:40:29;;;;;;;7.40;4.27;;;;;;;16.77;79.82;101056.25;5094736;28;20654;-83
2022/10/30 08:42:57;;;;;;;11.07;4.60;;;;;;;16.92;79.23;101043.38;5094565;28;20206;-83
2022/10/30 08:45:25;;;;;;;12.10;4.17;;;;;;;17.07;78.19;101043.91;5093450;28;20271;-82
2022/10/30 08:47:56;;;;;;;12.63;4.53;;;;;;;17.20;76.92;101042.72;5090613;28;20219;-82
2022/10/30 08:50:23;;;;;;;9.37;4.50;;;;;;;17.32;75.80;101041.72;5090893;28;20250;-82
2022/10/30 08:52:50;;;;;;;10.50;4.20;;;;;;;17.44;75.05;101038.94;5090703;28;20219;-81
2022/10/30 08:55:16;;;;;;;9.63;4.13;;;;;;;17.57;73.81;101047.66;5091483;28;20229;-82
2022/10/30 08:57:44;;;;;;;8.00;3.73;;;;;;;17.69;72.93;101046.66;5091259;28;20211;-81
2022/10/30 09:00:11;;;;;;;11.63;4.77;;;;;;;17.81;72.14;101045.56;5091016;28;20236;-82
2022/10/30 09:02:39;;;;;;;6.37;4.20;;;;;;;17.94;71.33;101053.44;5090288;28;20208;-81
2022/10/30 09:05:06;;;;;;;12.80;4.30;;;;;;;18.04;71.08;101052.50;5090808;28;20682;-81
2022/10/30 09:07:32;;;;;;;9.70;4.50;;;;;;;18.17;70.77;101049.56;5090606;28;20209;-81
2022/10/30 09:09:59;;;;;;;10.80;4.37;;;;;;;18.30;70.47;101058.25;5091057;28;20254;-82
2022/10/30 09:12:25;;;;;;;9.90;4.60;;;;;;;18.43;69.81;101057.19;5091236;28;20228;-81
2022/10/30 09:14:53;;;;;;;8.93;4.57;;;;;;;18.55;69.30;101054.22;5091080;28;20231;-81
2022/10/30 09:17:20;;;;;;;13.57;4.40;;;;;;;18.68;68.85;101059.38;5091256;28;20238;-82
2022/10/30 09:19:46;;;;;;;10.53;4.43;;;;;;;18.79;68.17;101059.28;5094155;28;20222;-82
2022/10/30 09:22:12;;;;;;;8.83;4.63;;;;;;;18.90;67.81;101063.69;5094163;28;20580;-81
2022/10/30 09:24:39;;;;;;;8.13;4.20;;;;;;;19.03;67.69;101069.66;5094045;28;20592;-82
2022/10/30 09:27:06;;;;;;;7.93;4.30;;;;;;;19.15;67.21;101070.38;5094151;28;20235;-81
2022/10/30 09:29:32;;;;;;;8.27;4.20;;;;;;;19.26;66.78;101065.69;5094018;28;20707;-82
2022/10/30 09:32:01;;;;;;;10.40;4.17;;;;;;;19.35;66.01;101063.94;5093895;28;20242;-82
2022/10/30 09:34:29;;;;;;;10.17;4.10;;;;;;;19.43;65.81;101054.16;5094792;28;20618;-82
2022/10/30 09:36:56;;;;;;;8.40;3.77;;;;;;;19.49;65.29;101057.28;5094397;28;20211;-83
2022/10/30 09:39:24;;;;;;;9.37;4.10;;;;;;;19.55;65.43;101059.41;5095445;28;20201;-83
2022/10/30 09:42:09;;;;;;;8.10;4.30;;;;;;;19.62;65.14;101053.28;5095433;28;20215;-83
2022/10/30 09:44:49;;;;;;;9.00;4.57;;;;;;;19.68;65.16;101057.28;5095968;28;20240;-83
2022/10/30 09:47:28;;;;;;;11.07;4.13;;;;;;;19.71;64.71;101060.50;5089043;28;20201;-83
2022/10/30 09:50:06;;;;;;;8.93;4.07;;;;;;;19.76;64.50;101057.38;5074458;28;20562;-84
2022/10/30 09:52:39;;;;;;;9.93;4.07;;;;;;;19.81;64.03;101056.94;5080990;28;20208;-83
2022/10/30 09:55:20;;;;;;;14.20;4.23;;;;;;;19.83;63.38;101063.06;5094822;28;20231;-81
2022/10/30 09:57:55;;;;;;;16.87;4.47;;;;;;;19.88;62.88;101061.63;5096451;28;20194;-82
2022/10/30 10:00:24;;;;;;;8.10;3.83;;;;;;;19.91;62.20;101057.75;5096904;28;20192;-83
2022/10/30 10:03:11;;;;;;;15.43;4.53;;;;;;;19.97;62.33;101051.78;5097484;28;20203;-83
2022/10/30 10:05:44;;;;;;;14.20;4.20;;;;;;;20.01;62.08;101054.03;5096791;28;20235;-83
2022/10/30 10:08:17;;;;;;;8.30;4.00;;;;;;;20.06;62.06;101053.59;5097077;28;20562;-83
2022/10/30 10:10:45;;;;;;;9.23;4.07;;;;;;;20.15;62.03;101049.13;5097672;28;20675;-83
2022/10/30 10:13:24;;;;;;;11.70;3.50;;;;;;;20.22;60.69;101047.56;5097112;28;20209;-81
2022/10/30 10:15:54;;;;;;;7.07;3.47;;;;;;;20.25;58.84;101049.94;5096797;28;20249;-82
2022/10/30 10:18:26;;;;;;;9.33;3.57;;;;;;;20.25;58.60;101048.06;5096707;28;20230;-83
2022/10/30 10:20:56;;;;;;;10.27;4.20;;;;;;;20.31;58.22;101043.94;5096930;28;20726;-82
2022/10/30 10:23:31;;;;;;;9.83;4.43;;;;;;;20.36;58.47;101044.34;5096371;28;20210;-82
2022/10/30 10:26:00;;;;;;;9.95;4.30;;;;;;;20.44;58.32;101041.75;5094584;28;20273;-82
2022/10/30 10:28:42;;;;;;;10.47;4.27;;;;;;;20.53;58.29;101051.69;5094986;28;20204;-82
2022/10/30 10:31:23;;;;;;;11.30;3.97;;;;;;;20.59;57.95;101050.22;5095584;28;20234;-82
2022/10/30 10:34:02;;;;;;;11.03;3.93;;;;;;;20.66;57.65;101051.31;5096190;28;20199;-82
2022/10/30 10:36:39;;;;;;;10.02;4.00;;;;;;;20.73;57.47;101047.00;5095651;28;20227;-82
2022/10/30 10:39:25;;;;;;;9.15;3.75;;;;;;;20.77;57.27;101045.69;5095561;28;20195;-82
2022/10/30 10:42:06;;;;;;;6.75;3.65;;;;;;;20.82;57.30;101042.50;5095938;28;20626;-83
2022/10/30 10:44:46;;;;;;;7.93;4.00;;;;;;;20.89;56.73;101040.91;5095881;28;20195;-83
2022/10/30 10:47:50;;;;;;;11.32;3.97;;;;;;;20.93;56.33;101042.28;5097358;28;20188;-83
2022/10/30 10:50:24;;;;;;;13.48;3.88;;;;;;;20.98;56.50;101050.78;5096544;28;20510;-83
2022/10/30 10:52:56;;;;;;;6.78;4.15;;;;;;;21.01;56.06;101040.50;5096707;28;20192;-83
2022/10/30 10:55:26;;;;;;;11.82;4.22;;;;;;;21.03;56.02;101037.63;5096825;28;20775;-83
2022/10/30 10:57:57;;;;;;;7.65;3.67;;;;;;;21.02;55.94;101028.66;5096580;28;20795;-83
2022/10/30 11:00:24;;;;;;;9.10;3.45;;;;;;;21.04;56.03;101025.81;5095985;28;20287;-83
2022/10/30 11:02:58;;;;;;;8.70;3.97;;;;;;;21.04;56.40;101023.09;5095974;28;20219;-84
2022/10/30 11:05:35;;;;;;;8.40;3.63;;;;;;;21.07;56.52;101018.22;5097040;28;20234;-83
2022/10/30 11:08:10;;;;;;;9.45;4.10;;;;;;;21.10;57.05;101006.22;5096974;28;20659;-83
2022/10/30 11:10:36;;;;;;;10.38;4.10;;;;;;;21.12;57.05;101006.94;5096660;28;20187;-83
2022/10/30 11:13:03;;;;;;;13.85;4.57;;;;;;;21.13;56.99;101014.91;5096447;28;20668;-83
2022/10/30 11:15:39;;;;;;;13.93;3.97;;;;;;;21.14;56.37;101010.31;5095491;28;20576;-83
2022/10/30 11:18:08;;;;;;;8.82;3.95;;;;;;;21.15;56.08;101009.28;5095494;28;20192;-84
2022/10/30 11:20:45;;;;;;;10.82;4.25;;;;;;;21.15;55.83;101003.88;5095247;28;20211;-83
2022/10/30 11:23:32;;;;;;;9.93;3.90;;;;;;;21.15;54.67;101002.03;5095397;28;20207;-83
2022/10/30 11:26:02;;;;;;;10.57;3.83;;;;;;;21.12;53.67;101001.50;5094846;28;20224;-82
2022/10/30 11:28:41;;;;;;;10.80;4.10;;;;;;;21.10;53.54;101004.38;5095460;28;20558;-83
2022/10/30 11:31:21;;;;;;;8.52;3.42;;;;;;;21.11;53.38;100995.25;5094737;28;20219;-83